createdAt,value
2018-11-10T00:00:17.626Z,10.91
2018-11-10T00:02:47.939Z,10.88
2018-11-10T00:05:17.983Z,10.90
2018-11-10T00:07:47.123Z,10.83
2018-11-10T00:10:22.206Z,10.82
2018-11-10T00:12:51.362Z,10.81
2018-11-10T00:15:20.541Z,10.82
2018-11-10T00:17:49.559Z,10.81
2018-11-10T00:20:18.570Z,10.77
2018-11-10T00:22:47.625Z,10.78
2018-11-10T00:25:16.678Z,10.76
2018-11-10T00:27:46.381Z,10.72
2018-11-10T00:30:17.364Z,10.67
2018-11-10T00:32:46.801Z,10.63
2018-11-10T00:35:15.889Z,10.62
2018-11-10T00:37:44.901Z,10.57
2018-11-10T00:40:15.720Z,10.56
2018-11-10T00:42:45.155Z,10.56
2018-11-10T00:45:14.277Z,10.52
2018-11-10T00:47:43.302Z,10.47
2018-11-10T00:50:12.372Z,10.46
2018-11-10T00:52:41.427Z,10.49
2018-11-10T00:55:10.562Z,10.48
2018-11-10T00:57:39.658Z,10.48
2018-11-10T01:00:11.093Z,10.46
2018-11-10T01:02:40.901Z,10.47
2018-11-10T01:05:09.998Z,10.42
2018-11-10T01:07:39.475Z,10.40
2018-11-10T01:10:10.924Z,10.34
2018-11-10T01:12:40.205Z,10.31
2018-11-10T01:15:11.780Z,10.34
2018-11-10T01:17:41.483Z,10.43
2018-11-10T01:20:11.415Z,10.39
2018-11-10T01:22:40.540Z,10.38
2018-11-10T01:25:10.631Z,10.34
2018-11-10T01:27:39.698Z,10.32
2018-11-10T01:30:13.074Z,10.31
2018-11-10T01:32:42.824Z,10.22
2018-11-10T01:35:11.986Z,10.20
2018-11-10T01:37:41.034Z,10.24
2018-11-10T01:40:12.173Z,10.27
2018-11-10T01:42:41.992Z,10.31
2018-11-10T01:45:14.339Z,10.33
2018-11-10T01:47:43.970Z,10.31
2018-11-10T01:50:12.998Z,10.28
2018-11-10T01:52:42.353Z,10.24
2018-11-10T01:55:11.854Z,10.20
2018-11-10T01:57:41.779Z,10.26
2018-11-10T02:00:14.472Z,10.24
2018-11-10T02:02:44.324Z,10.23
2018-11-10T02:05:13.667Z,10.24
2018-11-10T02:07:42.713Z,10.28
2018-11-10T02:10:12.175Z,10.26
2018-11-10T02:12:41.573Z,10.26
2018-11-10T02:15:15.580Z,10.30
2018-11-10T02:17:44.601Z,10.34
2018-11-10T02:20:14.483Z,10.34
2018-11-10T02:22:43.697Z,10.36
2018-11-10T02:25:16.601Z,10.40
2018-11-10T02:27:45.961Z,10.42
2018-11-10T02:30:15.074Z,10.41
2018-11-10T02:32:44.123Z,10.43
2018-11-10T02:35:13.280Z,10.35
2018-11-10T02:37:42.331Z,10.32
2018-11-10T02:40:13.514Z,10.32
2018-11-10T02:42:43.123Z,10.33
2018-11-10T02:45:13.328Z,10.27
2018-11-10T02:47:43.172Z,10.32
2018-11-10T02:50:12.267Z,10.26
2018-11-10T02:52:41.384Z,10.27
2018-11-10T02:55:10.924Z,10.30
2018-11-10T02:57:40.366Z,10.29
2018-11-10T03:00:11.153Z,10.34
2018-11-10T03:02:40.256Z,10.35
2018-11-10T03:05:10.854Z,10.32
2018-11-10T03:07:40.119Z,10.38
2018-11-10T03:10:10.763Z,10.38
2018-11-10T03:12:40.665Z,10.37
2018-11-10T03:15:10.612Z,10.31
2018-11-10T03:17:39.643Z,10.32
2018-11-10T03:20:14.203Z,10.27
2018-11-10T03:22:43.852Z,10.18
2018-11-10T03:25:12.977Z,10.25
2018-11-10T03:27:42.008Z,10.28
2018-11-10T03:30:11.123Z,10.28
2018-11-10T03:32:40.219Z,10.32
2018-11-10T03:35:09.530Z,10.23
2018-11-10T03:37:39.870Z,10.30
2018-11-10T03:40:10.350Z,10.27
2018-11-10T03:42:39.989Z,10.29
2018-11-10T03:45:10.584Z,10.24
2018-11-10T03:47:39.714Z,10.29
2018-11-10T03:50:09.918Z,10.27
2018-11-10T03:52:39.002Z,10.29
2018-11-10T03:55:08.601Z,10.25
2018-11-10T03:57:37.673Z,10.28
2018-11-10T04:00:10.473Z,10.30
2018-11-10T04:02:40.198Z,10.29
2018-11-10T04:05:10.119Z,10.24
2018-11-10T04:07:39.925Z,10.21
2018-11-10T04:10:08.942Z,10.27
2018-11-10T04:12:38.055Z,10.33
2018-11-10T04:15:07.270Z,10.35
2018-11-10T04:17:36.441Z,10.29
2018-11-10T04:20:07.556Z,10.24
2018-11-10T04:22:37.487Z,10.25
2018-11-10T04:25:09.749Z,10.25
2018-11-10T04:27:38.814Z,10.25
2018-11-10T04:30:09.304Z,10.14
2018-11-10T04:32:38.357Z,10.14
2018-11-10T04:35:08.131Z,10.15
2018-11-10T04:37:37.372Z,10.13
2018-11-10T04:40:07.648Z,10.14
2018-11-10T04:42:36.641Z,10.12
2018-11-10T04:45:06.945Z,10.15
2018-11-10T04:47:35.940Z,10.15
2018-11-10T04:50:06.726Z,10.20
2018-11-10T04:52:35.707Z,10.22
2018-11-10T04:55:05.031Z,10.25
2018-11-10T04:57:34.045Z,10.23
2018-11-10T05:00:03.261Z,10.15
2018-11-10T05:02:32.387Z,10.17
2018-11-10T05:05:01.458Z,10.23
2018-11-10T05:07:30.570Z,10.24
2018-11-10T05:09:59.643Z,10.27
2018-11-10T05:12:28.659Z,10.24
2018-11-10T05:14:57.765Z,10.30
2018-11-10T05:17:26.789Z,10.31
2018-11-10T05:19:55.758Z,10.25
2018-11-10T05:22:24.817Z,10.25
2018-11-10T05:24:53.847Z,10.24
2018-11-10T05:27:22.841Z,10.29
2018-11-10T05:29:51.938Z,10.22
2018-11-10T05:32:20.998Z,10.19
2018-11-10T05:34:50.058Z,10.13
2018-11-10T05:37:19.113Z,10.18
2018-11-10T05:39:48.287Z,10.19
2018-11-10T05:42:17.360Z,10.15
2018-11-10T05:44:46.416Z,10.15
2018-11-10T05:47:15.435Z,10.15
2018-11-10T05:49:44.530Z,10.11
2018-11-10T05:52:13.657Z,10.11
2018-11-10T05:54:44.093Z,10.10
2018-11-10T05:57:13.223Z,10.03
2018-11-10T05:59:42.274Z,10.05
2018-11-10T06:02:11.299Z,10.03
2018-11-10T06:04:40.317Z,10.08
2018-11-10T06:07:09.353Z,10.10
2018-11-10T06:09:38.452Z,10.13
2018-11-10T06:12:08.174Z,10.10
2018-11-10T06:14:37.277Z,10.07
2018-11-10T06:17:06.886Z,10.07
2018-11-10T06:19:35.929Z,10.06
2018-11-10T06:22:04.993Z,10.06
2018-11-10T06:24:34.073Z,10.07
2018-11-10T06:27:03.417Z,10.09
2018-11-10T06:29:32.488Z,10.12
2018-11-10T06:32:01.573Z,10.09
2018-11-10T06:34:30.602Z,10.14
2018-11-10T06:36:59.939Z,10.12
2018-11-10T06:39:29.052Z,10.15
2018-11-10T06:41:59.037Z,10.25
2018-11-10T06:44:28.114Z,10.28
2018-11-10T06:46:57.147Z,10.33
2018-11-10T06:49:26.133Z,10.30
2018-11-10T06:51:55.228Z,10.26
2018-11-10T06:54:24.430Z,10.30
2018-11-10T06:56:53.478Z,10.30
2018-11-10T06:59:22.577Z,10.32
2018-11-10T07:01:51.596Z,10.35
2018-11-10T07:04:20.645Z,10.32
2018-11-10T07:06:49.678Z,10.34
2018-11-10T07:09:18.750Z,10.39
2018-11-10T07:11:47.796Z,10.41
2018-11-10T07:14:16.844Z,10.46
2018-11-10T07:16:46.046Z,10.48
2018-11-10T07:19:15.084Z,10.43
2018-11-10T07:21:44.158Z,10.49
2018-11-10T07:24:13.222Z,10.52
2018-11-10T07:26:43.227Z,10.44
2018-11-10T07:29:12.291Z,10.42
2018-11-10T07:31:41.344Z,10.45
2018-11-10T07:34:10.459Z,10.48
2018-11-10T07:36:39.521Z,10.62
2018-11-10T07:39:10.315Z,10.74
2018-11-10T07:41:39.365Z,10.80
2018-11-10T07:44:08.401Z,10.82
2018-11-10T07:46:37.438Z,10.88
2018-11-10T07:49:06.593Z,10.95
2018-11-10T07:51:35.519Z,10.97
2018-11-10T07:54:04.694Z,10.96
2018-11-10T07:56:33.732Z,10.93
2018-11-10T07:59:02.744Z,10.97
2018-11-10T08:01:31.848Z,10.94
2018-11-10T08:04:00.861Z,10.98
2018-11-10T08:06:29.881Z,11.08
2018-11-10T08:08:58.948Z,11.11
2018-11-10T08:11:28.098Z,11.07
2018-11-10T08:13:57.138Z,11.15
2018-11-10T08:16:26.135Z,11.23
2018-11-10T08:18:55.217Z,11.21
2018-11-10T08:21:24.357Z,11.26
2018-11-10T08:23:53.461Z,11.25
2018-11-10T08:26:22.491Z,11.41
2018-11-10T08:28:51.513Z,11.36
2018-11-10T08:31:20.592Z,11.30
2018-11-10T08:33:49.560Z,11.38
2018-11-10T08:36:18.617Z,11.42
2018-11-10T08:38:47.711Z,11.52
2018-11-10T08:41:16.890Z,11.69
2018-11-10T08:43:46.030Z,11.72
2018-11-10T08:46:15.096Z,11.79
2018-11-10T08:48:44.164Z,11.88
2018-11-10T08:51:13.157Z,11.94
2018-11-10T08:53:42.291Z,12.08
2018-11-10T08:56:11.440Z,12.03
2018-11-10T08:58:40.889Z,11.90
2018-11-10T09:01:09.938Z,11.91
2018-11-10T09:03:38.942Z,12.05
2018-11-10T09:06:07.997Z,12.11
2018-11-10T09:08:37.021Z,11.96
2018-11-10T09:11:06.008Z,12.00
2018-11-10T09:13:35.027Z,11.86
2018-11-10T09:16:04.087Z,11.87
2018-11-10T09:18:33.108Z,11.78
2018-11-10T09:21:02.166Z,11.84
2018-11-10T09:23:31.242Z,11.81
2018-11-10T09:26:00.354Z,11.79
2018-11-10T09:28:29.422Z,11.86
2018-11-10T09:30:58.506Z,11.93
2018-11-10T09:33:27.546Z,11.84
2018-11-10T09:35:56.579Z,11.83
2018-11-10T09:38:26.332Z,11.76
2018-11-10T09:40:55.474Z,11.77
2018-11-10T09:43:24.754Z,11.72
2018-11-10T09:45:54.488Z,11.61
2018-11-10T09:48:23.591Z,11.60
2018-11-10T09:50:52.682Z,11.72
2018-11-10T09:53:21.746Z,11.76
2018-11-10T09:55:50.837Z,11.73
2018-11-10T09:58:19.985Z,11.70
2018-11-10T10:00:49.075Z,11.61
2018-11-10T10:03:18.188Z,11.67
2018-11-10T10:05:47.195Z,11.53
2018-11-10T10:08:16.202Z,11.53
2018-11-10T10:10:45.208Z,11.52
2018-11-10T10:13:14.282Z,11.63
2018-11-10T10:15:44.785Z,11.67
2018-11-10T10:18:13.838Z,11.67
2018-11-10T10:20:42.832Z,11.69
2018-11-10T10:23:11.964Z,11.85
2018-11-10T10:25:41.039Z,11.91
2018-11-10T10:28:10.202Z,11.97
2018-11-10T10:30:39.239Z,12.07
2018-11-10T10:33:08.234Z,12.16
2018-11-10T10:35:37.351Z,12.37
2018-11-10T10:38:06.498Z,12.39
2018-11-10T10:40:35.503Z,12.51
2018-11-10T10:43:04.610Z,12.69
2018-11-10T10:45:33.625Z,12.57
2018-11-10T10:48:02.723Z,12.51
2018-11-10T10:50:31.788Z,12.41
2018-11-10T10:53:00.762Z,12.57
2018-11-10T10:55:29.868Z,12.53
2018-11-10T10:57:58.952Z,12.53
2018-11-10T11:00:33.475Z,12.48
2018-11-10T11:03:08.186Z,12.48
2018-11-10T11:05:42.164Z,12.51
2018-11-10T11:08:11.226Z,12.47
2018-11-10T11:10:40.303Z,12.48
2018-11-10T11:13:09.362Z,12.46
2018-11-10T11:15:38.379Z,12.67
2018-11-10T11:18:07.426Z,12.72
2018-11-10T11:20:36.446Z,12.80
2018-11-10T11:23:05.501Z,12.81
2018-11-10T11:25:34.488Z,12.83
2018-11-10T11:28:03.625Z,12.92
2018-11-10T11:30:32.718Z,12.81
2018-11-10T11:33:01.797Z,12.95
2018-11-10T11:35:30.974Z,12.93
2018-11-10T11:37:59.910Z,12.97
2018-11-10T11:40:28.946Z,12.93
2018-11-10T11:42:57.945Z,13.15
2018-11-10T11:45:27.046Z,13.09
2018-11-10T11:47:56.285Z,13.18
2018-11-10T11:50:25.371Z,13.05
2018-11-10T11:52:54.441Z,13.29
2018-11-10T11:55:23.513Z,13.29
2018-11-10T11:57:52.627Z,13.27
2018-11-10T12:00:21.646Z,13.30
2018-11-10T12:02:50.752Z,13.34
2018-11-10T12:05:19.808Z,13.49
2018-11-10T12:07:48.856Z,13.43
2018-11-10T12:10:17.908Z,13.50
2018-11-10T12:12:46.922Z,13.34
2018-11-10T12:15:16.674Z,13.47
2018-11-10T12:17:45.614Z,13.51
2018-11-10T12:20:15.449Z,13.87
2018-11-10T12:22:44.465Z,14.06
2018-11-10T12:25:14.181Z,14.17
2018-11-10T12:27:43.846Z,13.98
2018-11-10T12:30:13.019Z,14.31
2018-11-10T12:32:42.064Z,14.44
2018-11-10T12:35:12.500Z,14.28
2018-11-10T12:37:42.102Z,14.47
2018-11-10T12:40:12.632Z,13.75
2018-11-10T12:42:41.919Z,13.83
2018-11-10T12:45:12.000Z,13.90
2018-11-10T12:47:41.620Z,14.14
2018-11-10T12:50:12.808Z,13.71
2018-11-10T12:52:42.711Z,14.12
2018-11-10T12:55:12.947Z,14.03
2018-11-10T12:57:42.533Z,14.08
2018-11-10T13:00:13.081Z,15.33
2018-11-10T13:02:42.481Z,15.02
2018-11-10T13:05:12.002Z,15.07
2018-11-10T13:07:44.478Z,15.07
2018-11-10T13:10:13.533Z,15.66
2018-11-10T13:12:43.189Z,15.40
2018-11-10T13:15:12.291Z,15.30
2018-11-10T13:17:41.341Z,15.77
2018-11-10T13:20:13.380Z,15.81
2018-11-10T13:22:42.448Z,16.15
2018-11-10T13:25:12.555Z,16.05
2018-11-10T13:27:41.732Z,15.98
2018-11-10T13:30:12.789Z,16.39
2018-11-10T13:32:41.850Z,16.86
2018-11-10T13:35:11.185Z,16.95
2018-11-10T13:37:40.780Z,17.28
2018-11-10T13:40:10.288Z,17.27
2018-11-10T13:42:39.330Z,17.40
2018-11-10T13:45:10.847Z,17.13
2018-11-10T13:47:39.888Z,17.20
2018-11-10T13:50:10.671Z,17.06
2018-11-10T13:52:40.933Z,16.84
2018-11-10T13:55:10.125Z,16.88
2018-11-10T13:57:39.383Z,17.11
2018-11-10T14:00:12.672Z,17.09
2018-11-10T14:02:42.159Z,16.88
2018-11-10T14:05:11.890Z,17.09
2018-11-10T14:07:41.048Z,16.94
2018-11-10T14:10:12.780Z,16.53
2018-11-10T14:12:42.769Z,16.56
2018-11-10T14:15:11.776Z,16.51
2018-11-10T14:17:41.696Z,16.42
2018-11-10T14:20:13.054Z,16.18
2018-11-10T14:22:42.148Z,16.22
2018-11-10T14:25:12.571Z,16.08
2018-11-10T14:27:42.463Z,15.86
2018-11-10T14:30:13.737Z,15.72
2018-11-10T14:32:43.252Z,15.73
2018-11-10T14:35:12.619Z,15.76
2018-11-10T14:37:41.769Z,15.47
2018-11-10T14:40:13.612Z,15.35
2018-11-10T14:42:43.070Z,15.11
2018-11-10T14:45:13.305Z,14.92
2018-11-10T14:47:43.017Z,14.89
2018-11-10T14:50:12.946Z,14.70
2018-11-10T14:52:42.301Z,14.46
2018-11-10T14:55:12.032Z,14.27
2018-11-10T14:57:41.275Z,13.92
2018-11-10T15:00:14.349Z,13.69
2018-11-10T15:02:43.449Z,13.44
2018-11-10T15:05:13.027Z,13.22
2018-11-10T15:07:42.979Z,13.00
2018-11-10T15:10:13.374Z,12.84
2018-11-10T15:12:43.210Z,12.75
2018-11-10T15:15:13.305Z,12.51
2018-11-10T15:17:42.822Z,12.29
2018-11-10T15:20:13.151Z,12.17
2018-11-10T15:22:42.210Z,11.98
2018-11-10T15:25:12.829Z,11.87
2018-11-10T15:27:41.878Z,11.71
2018-11-10T15:30:13.529Z,11.61
2018-11-10T15:32:43.440Z,11.57
2018-11-10T15:35:13.636Z,11.43
2018-11-10T15:37:43.926Z,11.31
2018-11-10T15:40:13.839Z,11.19
2018-11-10T15:42:42.950Z,11.08
2018-11-10T15:45:13.018Z,10.95
2018-11-10T15:47:43.004Z,10.81
2018-11-10T15:50:13.802Z,10.71
2018-11-10T15:52:42.900Z,10.61
2018-11-10T15:55:12.569Z,10.58
2018-11-10T15:57:41.981Z,10.46
2018-11-10T16:00:13.157Z,10.36
2018-11-10T16:02:42.533Z,10.28
2018-11-10T16:05:12.034Z,10.17
2018-11-10T16:07:41.089Z,10.11
2018-11-10T16:10:10.424Z,9.94
2018-11-10T16:12:39.574Z,9.88
2018-11-10T16:15:11.984Z,9.84
2018-11-10T16:17:41.300Z,9.81
2018-11-10T16:20:14.046Z,9.73
2018-11-10T16:22:44.625Z,9.74
2018-11-10T16:25:13.856Z,9.67
2018-11-10T16:27:42.867Z,9.59
2018-11-10T16:30:13.733Z,9.46
2018-11-10T16:32:43.001Z,9.41
2018-11-10T16:35:12.067Z,9.34
2018-11-10T16:37:41.458Z,9.29
2018-11-10T16:40:13.817Z,9.23
2018-11-10T16:42:44.039Z,9.19
2018-11-10T16:45:13.962Z,9.14
2018-11-10T16:47:43.056Z,9.07
2018-11-10T16:50:12.049Z,8.98
2018-11-10T16:52:41.793Z,8.90
2018-11-10T16:55:10.870Z,8.88
2018-11-10T16:57:40.026Z,8.84
2018-11-10T17:00:13.860Z,8.76
2018-11-10T17:02:43.769Z,8.71
2018-11-10T17:05:12.823Z,8.62
2018-11-10T17:07:41.838Z,8.61
2018-11-10T17:10:13.701Z,8.59
2018-11-10T17:12:42.947Z,8.53
2018-11-10T17:15:11.969Z,8.53
2018-11-10T17:17:41.998Z,8.50
2018-11-10T17:20:14.497Z,8.46
2018-11-10T17:22:43.802Z,8.42
2018-11-10T17:25:13.635Z,8.39
2018-11-10T17:27:42.922Z,8.31
2018-11-10T17:30:14.451Z,8.28
2018-11-10T17:32:43.543Z,8.20
2018-11-10T17:35:12.961Z,8.09
2018-11-10T17:37:42.105Z,8.01
2018-11-10T17:40:11.996Z,8.00
2018-11-10T17:42:41.031Z,7.95
2018-11-10T17:45:14.420Z,7.93
2018-11-10T17:47:43.640Z,7.94
2018-11-10T17:50:13.712Z,7.88
2018-11-10T17:52:42.807Z,7.84
2018-11-10T17:55:13.331Z,7.78
2018-11-10T17:57:43.005Z,7.72
2018-11-10T18:00:12.259Z,7.72
2018-11-10T18:02:41.291Z,7.74
2018-11-10T18:05:12.259Z,7.73
2018-11-10T18:07:41.387Z,7.71
2018-11-10T18:10:12.870Z,7.71
2018-11-10T18:12:42.636Z,7.66
2018-11-10T18:15:12.143Z,7.63
2018-11-10T18:17:41.427Z,7.56
2018-11-10T18:20:12.399Z,7.52
2018-11-10T18:22:41.553Z,7.49
2018-11-10T18:25:10.658Z,7.45
2018-11-10T18:27:39.697Z,7.40
2018-11-10T18:30:11.194Z,7.43
2018-11-10T18:32:40.329Z,7.38
2018-11-10T18:35:10.121Z,7.35
2018-11-10T18:37:39.205Z,7.30
2018-11-10T18:40:08.384Z,7.25
2018-11-10T18:42:37.305Z,7.25
2018-11-10T18:45:07.930Z,7.19
2018-11-10T18:47:37.337Z,7.17
2018-11-10T18:50:09.280Z,7.13
2018-11-10T18:52:38.401Z,7.14
2018-11-10T18:55:07.588Z,7.12
2018-11-10T18:57:36.865Z,7.05
2018-11-10T19:00:08.227Z,7.01
2018-11-10T19:02:37.299Z,7.00
2018-11-10T19:05:08.148Z,6.98
2018-11-10T19:07:38.294Z,6.96
2018-11-10T19:10:10.404Z,6.89
2018-11-10T19:12:39.905Z,6.86
2018-11-10T19:15:14.397Z,6.86
2018-11-10T19:17:43.580Z,6.85
2018-11-10T19:20:13.398Z,6.81
2018-11-10T19:22:42.490Z,6.79
2018-11-10T19:25:12.528Z,6.78
2018-11-10T19:27:41.673Z,6.75
2018-11-10T19:30:17.473Z,6.71
2018-11-10T19:32:47.469Z,6.63
2018-11-10T19:35:17.232Z,6.61
2018-11-10T19:37:46.600Z,6.57
2018-11-10T19:40:15.753Z,6.51
2018-11-10T19:42:45.565Z,6.50
2018-11-10T19:45:14.684Z,6.52
2018-11-10T19:47:44.846Z,6.54
2018-11-10T19:50:14.362Z,6.51
2018-11-10T19:52:44.241Z,6.51
2018-11-10T19:55:15.147Z,6.52
2018-11-10T19:57:44.354Z,6.52
2018-11-10T20:00:16.957Z,6.47
2018-11-10T20:02:46.158Z,6.45
2018-11-10T20:05:15.455Z,6.44
2018-11-10T20:07:44.585Z,6.38
2018-11-10T20:10:13.993Z,6.34
2018-11-10T20:12:43.238Z,6.31
2018-11-10T20:15:13.501Z,6.29
2018-11-10T20:17:42.891Z,6.23
2018-11-10T20:20:13.147Z,6.20
2018-11-10T20:22:42.618Z,6.21
2018-11-10T20:25:13.971Z,6.19
2018-11-10T20:27:43.019Z,6.21
2018-11-10T20:30:15.684Z,6.15
2018-11-10T20:32:44.744Z,6.13
2018-11-10T20:35:14.148Z,6.12
2018-11-10T20:37:43.847Z,6.12
2018-11-10T20:40:13.961Z,6.11
2018-11-10T20:42:43.079Z,6.05
2018-11-10T20:45:15.643Z,6.01
2018-11-10T20:47:44.680Z,6.03
2018-11-10T20:50:14.511Z,5.97
2018-11-10T20:52:43.641Z,5.97
2018-11-10T20:55:13.144Z,5.93
2018-11-10T20:57:42.198Z,5.88
2018-11-10T21:00:15.679Z,5.89
2018-11-10T21:02:44.937Z,5.84
2018-11-10T21:05:14.469Z,5.79
2018-11-10T21:07:43.493Z,5.73
2018-11-10T21:10:15.037Z,5.82
2018-11-10T21:12:45.086Z,5.78
2018-11-10T21:15:14.755Z,5.76
2018-11-10T21:17:43.848Z,5.73
2018-11-10T21:20:13.272Z,5.75
2018-11-10T21:22:42.840Z,5.74
2018-11-10T21:25:13.964Z,5.68
2018-11-10T21:27:43.163Z,5.66
2018-11-10T21:30:13.548Z,5.65
2018-11-10T21:32:42.824Z,5.64
2018-11-10T21:35:12.063Z,5.63
2018-11-10T21:37:41.002Z,5.57
2018-11-10T21:40:15.087Z,5.51
2018-11-10T21:42:44.402Z,5.51
2018-11-10T21:45:14.302Z,5.58
2018-11-10T21:47:43.598Z,5.55
2018-11-10T21:50:14.176Z,5.49
2018-11-10T21:52:43.869Z,5.49
2018-11-10T21:55:14.214Z,5.43
2018-11-10T21:57:44.027Z,5.40
2018-11-10T22:00:15.597Z,5.43
2018-11-10T22:02:45.179Z,5.42
2018-11-10T22:05:14.376Z,5.42
2018-11-10T22:07:43.406Z,5.43
2018-11-10T22:10:14.338Z,5.38
2018-11-10T22:12:43.718Z,5.34
2018-11-10T22:15:19.091Z,5.32
2018-11-10T22:17:48.229Z,5.33
2018-11-10T22:20:18.622Z,5.29
2018-11-10T22:22:47.832Z,5.25
2018-11-10T22:25:17.676Z,5.27
2018-11-10T22:27:48.012Z,5.25
2018-11-10T22:30:18.273Z,5.21
2018-11-10T22:32:47.924Z,5.18
2018-11-10T22:35:16.945Z,5.22
2018-11-10T22:37:45.961Z,5.20
2018-11-10T22:40:16.348Z,5.17
2018-11-10T22:42:45.670Z,5.14
2018-11-10T22:45:15.971Z,5.12
2018-11-10T22:47:44.989Z,5.13
2018-11-10T22:50:16.947Z,5.12
2018-11-10T22:52:46.025Z,5.11
2018-11-10T22:55:15.123Z,5.09
2018-11-10T22:57:44.116Z,5.12
2018-11-10T23:00:18.870Z,5.06
2018-11-10T23:02:49.115Z,5.06
2018-11-10T23:05:18.905Z,5.06
2018-11-10T23:07:48.006Z,5.04
2018-11-10T23:10:17.453Z,5.00
2018-11-10T23:12:47.529Z,5.03
2018-11-10T23:15:16.600Z,5.04
2018-11-10T23:17:45.642Z,5.05
2018-11-10T23:20:16.063Z,5.13
2018-11-10T23:22:45.147Z,5.02
2018-11-10T23:25:15.588Z,4.99
2018-11-10T23:27:44.638Z,4.95
2018-11-10T23:30:17.501Z,4.94
2018-11-10T23:32:46.621Z,4.91
2018-11-10T23:35:15.641Z,4.89
2018-11-10T23:37:44.661Z,4.84
2018-11-10T23:40:14.750Z,4.87
2018-11-10T23:42:44.121Z,4.83
2018-11-10T23:45:13.745Z,4.79
2018-11-10T23:47:42.754Z,4.83
2018-11-10T23:50:13.155Z,4.82
2018-11-10T23:52:42.260Z,4.75
2018-11-10T23:55:12.276Z,4.75
2018-11-10T23:57:41.327Z,4.74
